Azure — ZCEE2 — position and weather

sailwx.info

Track history (hours):
 
Tides and Currents Weather Stations Pressure Air Temp Water Temp Dewpoint Dewpoint Depression Visibility Wind Speed Wind Dir Waves Ship Positions

Azure

Last reported at 2015-Jul-03 23:33 UTC. Time now 2015-Jul-03 23:47 UTC.
Position N 50°36' E 000°26'.

Length 289 m; draft 8.6 m.

Type: Ship. MMSI: 310610000.

Date/timePositionNaut miles runAvg speedWind from/ knotsBaromVisibWave heightAir tempDewpointWater temp
2015-Jul-03 23:33N 50°36' E 000°26'1312.6
2015-Jul-03 22:33N 50°42' E 000°44'1412.8
2015-Jul-03 21:25N 50°50' E 001°02'1315.2
2015-Jul-03 20:33N 50°59' E 001°18'1717.3
2015-Jul-03 19:33N 51°10' E 001°40'1615.9
2015-Jul-03 18:33N 51°22' E 001°55'1313.0
2015-Jul-03 17:33N 51°20' E 002°16'1514.9
2015-Jul-03 16:33N 51°23' E 002°40'1515.2
2015-Jul-03 15:33N 51°24' E 003°04'7 6.4
2015-Jul-03 14:32N 51°20' E 003°12'0 0.0
2015-Jul-03 13:32N 51°20' E 003°12'0 0.0
2015-Jul-03 12:32N 51°20' E 003°12'0 0.0
2015-Jul-03 11:32N 51°20' E 003°12'0 0.0
2015-Jul-03 10:32N 51°20' E 003°12'0 0.0
2015-Jul-03 09:29N 51°20' E 003°12'0 0.0
2015-Jul-03 08:32N 51°20' E 003°12'0 0.0
2015-Jul-03 07:32N 51°20' E 003°12'0 0.0
2015-Jul-03 06:32N 51°20' E 003°12'0 0.0
2015-Jul-03 05:20N 51°20' E 003°12'1 1.4
2015-Jul-03 04:34N 51°21' E 003°12'1514.9
2015-Jul-03 03:33N 51°22' E 002°48'1110.9
2015-Jul-03 02:33N 51°32' E 002°46'1414.0
2015-Jul-03 01:33N 51°46' E 002°50'1914.3
2015-Jul-03 00:13N 52°05' E 002°51'1316.4
2015-Jul-02 23:26N 52°16' E 003°04'1517.1
2015-Jul-02 22:33N 52°27' E 003°20'1818.0
2015-Jul-02 21:34N 52°42' E 003°35'1817.7
2015-Jul-02 20:34N 52°55' E 003°55'1717.0
2015-Jul-02 19:34N 53°06' E 004°16'1515.2
2015-Jul-02 18:33N 53°19' E 004°30'1616.0
2015-Jul-02 17:33N 53°34' E 004°38'1616.2
2015-Jul-02 16:33N 53°50' E 004°45'1716.7
2015-Jul-02 15:32N 54°05' E 004°59'1717.3
2015-Jul-02 14:33N 54°21' E 005°10'3617.5
2015-Jul-02 12:31N 54°52' E 005°42'1717.2
2015-Jul-02 11:32N 55°06' E 005°56'1916.4
2015-Jul-02 10:22N 55°23' E 006°12'1716.9
2015-Jul-02 09:22N 55°38' E 006°27'1617.0
2015-Jul-02 08:25N 55°52' E 006°40'3416.7
2015-Jul-02 06:23N 56°21' E 007°12'3416.3
2015-Jul-02 04:19N 56°51' E 007°39'1316.6
2015-Jul-02 03:33N 57°02' E 007°52'2217.4
2015-Jul-02 02:16N 57°19' E 008°19'1617.2
2015-Jul-02 01:22N 57°31' E 008°36'1617.1
2015-Jul-02 00:26N 57°44' E 008°54'1516.7
2015-Jul-01 23:33N 57°56' E 009°10'1716.8
2015-Jul-01 22:33N 58°09' E 009°29'1716.7
2015-Jul-01 21:33N 58°23' E 009°46'1716.8
2015-Jul-01 20:33N 58°36' E 010°06'1717.0
2015-Jul-01 19:34N 58°50' E 010°25'1615.7
2015-Jul-01 18:33N 59°05' E 010°35'1616.5
2015-Jul-01 17:33N 59°21' E 010°34'1616.4
2015-Jul-01 16:34N 59°38' E 010°37'1512.0
2015-Jul-01 15:18N 59°53' E 010°39'2 0.2
2015-Jul-01 06:18N 59°54' E 010°42'1212.0
2015-Jul-01 05:21N 59°43' E 010°35'1114.4
2015-Jul-01 04:33N 59°31' E 010°36'1919.2
2015-Jul-01 03:33N 59°12' E 010°39'1616.2
2015-Jul-01 02:34N 58°56' E 010°36'2020.1
2015-Jul-01 01:34N 58°37' E 010°43'2221.9
2015-Jul-01 00:34N 58°16' E 010°55'2120.8
2015-Jun-30 23:33N 57°56' E 011°09'2121.1
2015-Jun-30 22:34N 57°36' E 011°20'2120.7
2015-Jun-30 21:33N 57°17' E 011°36'2120.8
2015-Jun-30 20:33N 56°57' E 011°47'2020.4
2015-Jun-30 19:33N 56°37' E 011°57'2020.0
2015-Jun-30 18:33N 56°18' E 012°08'2020.2
2015-Jun-30 17:34N 56°05' E 012°36'1717.0
2015-Jun-30 16:34N 55°49' E 012°42'7 7.3
2015-Jun-30 15:32N 55°42' E 012°36'0 0.0
2015-Jun-30 14:32N 55°42' E 012°36'0 0.0
2015-Jun-30 13:33N 55°42' E 012°36'0 0.0
2015-Jun-30 12:31N 55°42' E 012°36'0 0.0
2015-Jun-30 11:31N 55°42' E 012°36'0 0.0
2015-Jun-30 10:31N 55°42' E 012°36'0 0.0
2015-Jun-30 09:31N 55°42' E 012°36'0 0.0
2015-Jun-30 08:31N 55°42' E 012°36'0 0.2
2015-Jun-30 07:34N 55°42' E 012°36'1010.0
2015-Jun-30 06:33N 55°52' E 012°40'1717.1
2015-Jun-30 05:33N 56°08' E 012°29'1817.8
2015-Jun-30 04:33N 56°10' E 011°57'2218.3
2015-Jun-30 03:22N 56°07' E 011°18'2418.1
2015-Jun-30 02:04N 55°50' E 010°50'1219.3
2015-Jun-30 01:26N 55°38' E 010°48'1416.0
2015-Jun-30 00:33N 55°25' E 010°59'1717.0
2015-Jun-29 23:33N 55°08' E 011°03'1717.4
2015-Jun-29 22:33N 54°52' E 010°53'1413.7
2015-Jun-29 21:33N 54°39' E 011°02'1716.9
2015-Jun-29 20:34N 54°31' E 011°28'1716.5
2015-Jun-29 19:33N 54°26' E 011°55'1413.8
2015-Jun-29 18:33N 54°33' E 012°15'4117.6
2015-Jun-29 16:12N 54°55' E 013°16'1420.9
2015-Jun-29 15:32N 54°59' E 013°39'1919.9
2015-Jun-29 14:33N 55°07' E 014°10'2120.5
2015-Jun-29 13:33N 55°23' E 014°32'2019.9
2015-Jun-29 12:33N 55°34' E 015°01'2020.3
2015-Jun-29 11:33N 55°44' E 015°33'20419.4
2015-Jun-29 01:00N 58°00' E 020°12'3019.5 190 / 151016.110.8 0.515.013.215.0
2015-Jun-28 23:26N 58°27' E 020°39'1719.1
2015-Jun-28 22:33N 58°41' E 020°56'3819.1
2015-Jun-28 20:33N 59°12' E 021°40'1919.1
2015-Jun-28 19:34N 59°22' E 022°11'1918.9
2015-Jun-28 18:33N 59°32' E 022°43'1919.2
2015-Jun-28 17:33N 59°37' E 023°20'1918.9
2015-Jun-28 16:33N 59°44' E 023°55'1918.7
2015-Jun-28 15:33N 59°49' E 024°31'1717.1
2015-Jun-28 14:33N 59°60' E 024°57'42 3.0
2015-Jun-28 00:33N 60°01' E 026°20'1515.3
2015-Jun-27 23:33N 59°60' E 026°51'1514.7
2015-Jun-27 22:33N 60°04' E 027°19'7313.4
2015-Jun-27 17:08N 59°59' E 029°44'610.8
2015-Jun-27 16:33N 59°56' E 029°56'8 7.7
2015-Jun-27 15:33N 59°57' E 030°11'0 0.0
2015-Jun-27 14:32N 59°57' E 030°11'0 0.0
2015-Jun-27 13:33N 59°57' E 030°11'0 0.0
2015-Jun-27 12:34N 59°57' E 030°11'0 0.0
2015-Jun-27 11:33N 59°57' E 030°11'0 0.0
2015-Jun-27 10:33N 59°57' E 030°11'0 0.0
2015-Jun-27 09:31N 59°57' E 030°11'0 0.0
2015-Jun-27 08:33N 59°57' E 030°11'0 0.0
2015-Jun-27 07:31N 59°57' E 030°11'0 0.0
2015-Jun-27 06:30N 59°57' E 030°11'0 0.0
2015-Jun-27 05:31N 59°57' E 030°11'0 0.0
2015-Jun-27 04:30N 59°57' E 030°11'0 0.0
2015-Jun-27 03:31N 59°57' E 030°11'0 0.0
2015-Jun-27 02:31N 59°57' E 030°11'0 0.0
2015-Jun-27 01:31N 59°57' E 030°11'0 0.0
2015-Jun-27 00:32N 59°57' E 030°11'0 0.0
2015-Jun-26 23:33N 59°57' E 030°11'0 0.0
2015-Jun-26 22:32N 59°57' E 030°11'0 0.0
2015-Jun-26 21:28N 59°57' E 030°11'0 0.0
2015-Jun-26 20:32N 59°57' E 030°11'0 0.0
2015-Jun-26 19:31N 59°57' E 030°11'0 0.0
2015-Jun-26 18:31N 59°57' E 030°11'0 0.0
2015-Jun-26 17:27N 59°57' E 030°11'0 0.0
2015-Jun-26 16:33N 59°57' E 030°11'0 0.0
2015-Jun-26 15:31N 59°57' E 030°11'0 0.0
2015-Jun-26 14:32N 59°57' E 030°11'0 0.0
2015-Jun-26 13:32N 59°57' E 030°11'0 0.0
2015-Jun-26 12:33N 59°57' E 030°11'0 0.0
2015-Jun-26 11:31N 59°57' E 030°11'0 0.0
2015-Jun-26 10:32N 59°57' E 030°11'0 0.0
2015-Jun-26 09:33N 59°57' E 030°11'0 0.0
2015-Jun-26 08:32N 59°57' E 030°11'0 0.0
2015-Jun-26 07:33N 59°57' E 030°11'0 0.0
2015-Jun-26 06:33N 59°57' E 030°11'0 0.0
2015-Jun-26 05:32N 59°57' E 030°11'0 0.0
2015-Jun-26 04:31N 59°57' E 030°11'0 0.4
2015-Jun-26 03:33N 59°57' E 030°10'9 9.3
2015-Jun-26 02:33N 59°57' E 029°52'1110.5
2015-Jun-26 01:33N 60°01' E 029°32'6013.9
2015-Jun-25 21:15N 60°07' E 027°33'1040.1
2015-Jun-25 21:00N 60°00' E 027°18'2 4.5 160 / 121015.310.8 12.5 8.5
2015-Jun-25 20:33N 60°01' E 027°15'1414.1
2015-Jun-25 19:34N 59°59' E 026°48'1514.6
2015-Jun-25 18:34N 59°57' E 026°19'1514.6
2015-Jun-25 17:34N 59°53' E 025°51'2914.6
2015-Jun-25 15:33N 59°45' E 024°55'1313.6
2015-Jun-25 14:33N 59°32' E 024°44'6 5.3
2015-Jun-25 13:31N 59°27' E 024°46'0 0.0
2015-Jun-25 12:33N 59°27' E 024°46'0 0.0
2015-Jun-25 11:21N 59°27' E 024°46'0 0.0
2015-Jun-25 10:12N 59°27' E 024°46'0 0.0
2015-Jun-25 09:33N 59°27' E 024°46'0 0.0
2015-Jun-25 08:31N 59°27' E 024°46'0 0.0
2015-Jun-25 06:31N 59°27' E 024°46'0 0.0
2015-Jun-25 05:21N 59°27' E 024°46'7 8.1
2015-Jun-25 04:33N 59°30' E 024°34'1717.4
2015-Jun-25 03:33N 59°29' E 024°00'2119.9
2015-Jun-25 02:30N 59°27' E 023°20'3919.8
2015-Jun-25 00:33N 59°24' E 022°04'5722.3
2015-Jun-24 22:00N 59°24' E 020°12'60 9.3 210 / 271009.110.8 0.514.012.2
2015-Jun-24 15:34N 59°21' E 018°15'5 5.1
2015-Jun-24 14:33N 59°19' E 018°06'0 0.0
2015-Jun-24 13:34N 59°19' E 018°06'0 0.0
2015-Jun-24 12:32N 59°19' E 018°06'0 0.0
2015-Jun-24 11:31N 59°19' E 018°06'0 0.0
2015-Jun-24 10:33N 59°19' E 018°06'0 0.0
2015-Jun-24 09:32N 59°19' E 018°06'0 0.0
2015-Jun-24 08:32N 59°19' E 018°06'0 0.0
2015-Jun-24 07:32N 59°19' E 018°06'0 0.5
2015-Jun-24 06:33N 59°19' E 018°07'  
Track history (hours):
 
Tides and Currents Weather Stations Pressure Air Temp Water Temp Dewpoint Dewpoint Depression Visibility Wind Speed Wind Dir Waves Ship Positions

Azure

Last reported at 2015-Jul-03 23:33 UTC. Time now 2015-Jul-03 23:47 UTC.
Position N 50°36' E 000°26'.

Length 289 m; draft 8.6 m.

Type: Ship. MMSI: 310610000.

Date/timePositionNaut miles runAvg speedWind from/ knotsBaromVisibWave heightAir tempDewpointWater temp
2015-Jul-03 23:33N 50°36' E 000°26'1312.6
2015-Jul-03 22:33N 50°42' E 000°44'1412.8
2015-Jul-03 21:25N 50°50' E 001°02'1315.2
2015-Jul-03 20:33N 50°59' E 001°18'1717.3
2015-Jul-03 19:33N 51°10' E 001°40'1615.9
2015-Jul-03 18:33N 51°22' E 001°55'1313.0
2015-Jul-03 17:33N 51°20' E 002°16'1514.9
2015-Jul-03 16:33N 51°23' E 002°40'1515.2
2015-Jul-03 15:33N 51°24' E 003°04'7 6.4
2015-Jul-03 14:32N 51°20' E 003°12'0 0.0
2015-Jul-03 13:32N 51°20' E 003°12'0 0.0
2015-Jul-03 12:32N 51°20' E 003°12'0 0.0
2015-Jul-03 11:32N 51°20' E 003°12'0 0.0
2015-Jul-03 10:32N 51°20' E 003°12'0 0.0
2015-Jul-03 09:29N 51°20' E 003°12'0 0.0
2015-Jul-03 08:32N 51°20' E 003°12'0 0.0
2015-Jul-03 07:32N 51°20' E 003°12'0 0.0
2015-Jul-03 06:32N 51°20' E 003°12'0 0.0
2015-Jul-03 05:20N 51°20' E 003°12'1 1.4
2015-Jul-03 04:34N 51°21' E 003°12'1514.9
2015-Jul-03 03:33N 51°22' E 002°48'1110.9
2015-Jul-03 02:33N 51°32' E 002°46'1414.0
2015-Jul-03 01:33N 51°46' E 002°50'1914.3
2015-Jul-03 00:13N 52°05' E 002°51'1316.4
2015-Jul-02 23:26N 52°16' E 003°04'1517.1
2015-Jul-02 22:33N 52°27' E 003°20'1818.0
2015-Jul-02 21:34N 52°42' E 003°35'1817.7
2015-Jul-02 20:34N 52°55' E 003°55'1717.0
2015-Jul-02 19:34N 53°06' E 004°16'1515.2
2015-Jul-02 18:33N 53°19' E 004°30'1616.0
2015-Jul-02 17:33N 53°34' E 004°38'1616.2
2015-Jul-02 16:33N 53°50' E 004°45'1716.7
2015-Jul-02 15:32N 54°05' E 004°59'1717.3
2015-Jul-02 14:33N 54°21' E 005°10'3617.5
2015-Jul-02 12:31N 54°52' E 005°42'1717.2
2015-Jul-02 11:32N 55°06' E 005°56'1916.4
2015-Jul-02 10:22N 55°23' E 006°12'1716.9
2015-Jul-02 09:22N 55°38' E 006°27'1617.0
2015-Jul-02 08:25N 55°52' E 006°40'3416.7
2015-Jul-02 06:23N 56°21' E 007°12'3416.3
2015-Jul-02 04:19N 56°51' E 007°39'1316.6
2015-Jul-02 03:33N 57°02' E 007°52'2217.4
2015-Jul-02 02:16N 57°19' E 008°19'1617.2
2015-Jul-02 01:22N 57°31' E 008°36'1617.1
2015-Jul-02 00:26N 57°44' E 008°54'1516.7
2015-Jul-01 23:33N 57°56' E 009°10'1716.8
2015-Jul-01 22:33N 58°09' E 009°29'1716.7
2015-Jul-01 21:33N 58°23' E 009°46'1716.8
2015-Jul-01 20:33N 58°36' E 010°06'1717.0
2015-Jul-01 19:34N 58°50' E 010°25'1615.7
2015-Jul-01 18:33N 59°05' E 010°35'1616.5
2015-Jul-01 17:33N 59°21' E 010°34'1616.4
2015-Jul-01 16:34N 59°38' E 010°37'1512.0
2015-Jul-01 15:18N 59°53' E 010°39'2 0.2
2015-Jul-01 06:18N 59°54' E 010°42'1212.0
2015-Jul-01 05:21N 59°43' E 010°35'1114.4
2015-Jul-01 04:33N 59°31' E 010°36'1919.2
2015-Jul-01 03:33N 59°12' E 010°39'1616.2
2015-Jul-01 02:34N 58°56' E 010°36'2020.1
2015-Jul-01 01:34N 58°37' E 010°43'2221.9
2015-Jul-01 00:34N 58°16' E 010°55'2120.8
2015-Jun-30 23:33N 57°56' E 011°09'2121.1
2015-Jun-30 22:34N 57°36' E 011°20'2120.7
2015-Jun-30 21:33N 57°17' E 011°36'2120.8
2015-Jun-30 20:33N 56°57' E 011°47'2020.4
2015-Jun-30 19:33N 56°37' E 011°57'2020.0
2015-Jun-30 18:33N 56°18' E 012°08'2020.2
2015-Jun-30 17:34N 56°05' E 012°36'1717.0
2015-Jun-30 16:34N 55°49' E 012°42'7 7.3
2015-Jun-30 15:32N 55°42' E 012°36'0 0.0
2015-Jun-30 14:32N 55°42' E 012°36'0 0.0
2015-Jun-30 13:33N 55°42' E 012°36'0 0.0
2015-Jun-30 12:31N 55°42' E 012°36'0 0.0
2015-Jun-30 11:31N 55°42' E 012°36'0 0.0
2015-Jun-30 10:31N 55°42' E 012°36'0 0.0
2015-Jun-30 09:31N 55°42' E 012°36'0 0.0
2015-Jun-30 08:31N 55°42' E 012°36'0 0.2
2015-Jun-30 07:34N 55°42' E 012°36'1010.0
2015-Jun-30 06:33N 55°52' E 012°40'1717.1
2015-Jun-30 05:33N 56°08' E 012°29'1817.8
2015-Jun-30 04:33N 56°10' E 011°57'2218.3
2015-Jun-30 03:22N 56°07' E 011°18'2418.1
2015-Jun-30 02:04N 55°50' E 010°50'1219.3
2015-Jun-30 01:26N 55°38' E 010°48'1416.0
2015-Jun-30 00:33N 55°25' E 010°59'1717.0
2015-Jun-29 23:33N 55°08' E 011°03'1717.4
2015-Jun-29 22:33N 54°52' E 010°53'1413.7
2015-Jun-29 21:33N 54°39' E 011°02'1716.9
2015-Jun-29 20:34N 54°31' E 011°28'1716.5
2015-Jun-29 19:33N 54°26' E 011°55'1413.8
2015-Jun-29 18:33N 54°33' E 012°15'4117.6
2015-Jun-29 16:12N 54°55' E 013°16'1420.9
2015-Jun-29 15:32N 54°59' E 013°39'1919.9
2015-Jun-29 14:33N 55°07' E 014°10'2120.5
2015-Jun-29 13:33N 55°23' E 014°32'2019.9
2015-Jun-29 12:33N 55°34' E 015°01'2020.3
2015-Jun-29 11:33N 55°44' E 015°33'20419.4
2015-Jun-29 01:00N 58°00' E 020°12'3019.5 190 / 151016.110.8 0.515.013.215.0
2015-Jun-28 23:26N 58°27' E 020°39'1719.1
2015-Jun-28 22:33N 58°41' E 020°56'3819.1
2015-Jun-28 20:33N 59°12' E 021°40'1919.1
2015-Jun-28 19:34N 59°22' E 022°11'1918.9
2015-Jun-28 18:33N 59°32' E 022°43'1919.2
2015-Jun-28 17:33N 59°37' E 023°20'1918.9
2015-Jun-28 16:33N 59°44' E 023°55'1918.7
2015-Jun-28 15:33N 59°49' E 024°31'1717.1
2015-Jun-28 14:33N 59°60' E 024°57'42 3.0
2015-Jun-28 00:33N 60°01' E 026°20'1515.3
2015-Jun-27 23:33N 59°60' E 026°51'1514.7
2015-Jun-27 22:33N 60°04' E 027°19'7313.4
2015-Jun-27 17:08N 59°59' E 029°44'610.8
2015-Jun-27 16:33N 59°56' E 029°56'8 7.7
2015-Jun-27 15:33N 59°57' E 030°11'0 0.0
2015-Jun-27 14:32N 59°57' E 030°11'0 0.0
2015-Jun-27 13:33N 59°57' E 030°11'0 0.0
2015-Jun-27 12:34N 59°57' E 030°11'0 0.0
2015-Jun-27 11:33N 59°57' E 030°11'0 0.0
2015-Jun-27 10:33N 59°57' E 030°11'0 0.0
2015-Jun-27 09:31N 59°57' E 030°11'0 0.0
2015-Jun-27 08:33N 59°57' E 030°11'0 0.0
2015-Jun-27 07:31N 59°57' E 030°11'0 0.0
2015-Jun-27 06:30N 59°57' E 030°11'0 0.0
2015-Jun-27 05:31N 59°57' E 030°11'0 0.0
2015-Jun-27 04:30N 59°57' E 030°11'0 0.0
2015-Jun-27 03:31N 59°57' E 030°11'0 0.0
2015-Jun-27 02:31N 59°57' E 030°11'0 0.0
2015-Jun-27 01:31N 59°57' E 030°11'0 0.0
2015-Jun-27 00:32N 59°57' E 030°11'0 0.0
2015-Jun-26 23:33N 59°57' E 030°11'0 0.0
2015-Jun-26 22:32N 59°57' E 030°11'0 0.0
2015-Jun-26 21:28N 59°57' E 030°11'0 0.0
2015-Jun-26 20:32N 59°57' E 030°11'0 0.0
2015-Jun-26 19:31N 59°57' E 030°11'0 0.0
2015-Jun-26 18:31N 59°57' E 030°11'0 0.0
2015-Jun-26 17:27N 59°57' E 030°11'0 0.0
2015-Jun-26 16:33N 59°57' E 030°11'0 0.0
2015-Jun-26 15:31N 59°57' E 030°11'0 0.0
2015-Jun-26 14:32N 59°57' E 030°11'0 0.0
2015-Jun-26 13:32N 59°57' E 030°11'0 0.0
2015-Jun-26 12:33N 59°57' E 030°11'0 0.0
2015-Jun-26 11:31N 59°57' E 030°11'0 0.0
2015-Jun-26 10:32N 59°57' E 030°11'0 0.0
2015-Jun-26 09:33N 59°57' E 030°11'0 0.0
2015-Jun-26 08:32N 59°57' E 030°11'0 0.0
2015-Jun-26 07:33N 59°57' E 030°11'0 0.0
2015-Jun-26 06:33N 59°57' E 030°11'0 0.0
2015-Jun-26 05:32N 59°57' E 030°11'0 0.0
2015-Jun-26 04:31N 59°57' E 030°11'0 0.4
2015-Jun-26 03:33N 59°57' E 030°10'9 9.3
2015-Jun-26 02:33N 59°57' E 029°52'1110.5
2015-Jun-26 01:33N 60°01' E 029°32'6013.9
2015-Jun-25 21:15N 60°07' E 027°33'1040.1
2015-Jun-25 21:00N 60°00' E 027°18'2 4.5 160 / 121015.310.8 12.5 8.5
2015-Jun-25 20:33N 60°01' E 027°15'1414.1
2015-Jun-25 19:34N 59°59' E 026°48'1514.6
2015-Jun-25 18:34N 59°57' E 026°19'1514.6
2015-Jun-25 17:34N 59°53' E 025°51'2914.6
2015-Jun-25 15:33N 59°45' E 024°55'1313.6
2015-Jun-25 14:33N 59°32' E 024°44'6 5.3
2015-Jun-25 13:31N 59°27' E 024°46'0 0.0
2015-Jun-25 12:33N 59°27' E 024°46'0 0.0
2015-Jun-25 11:21N 59°27' E 024°46'0 0.0
2015-Jun-25 10:12N 59°27' E 024°46'0 0.0
2015-Jun-25 09:33N 59°27' E 024°46'0 0.0
2015-Jun-25 08:31N 59°27' E 024°46'0 0.0
2015-Jun-25 06:31N 59°27' E 024°46'0 0.0
2015-Jun-25 05:21N 59°27' E 024°46'7 8.1
2015-Jun-25 04:33N 59°30' E 024°34'1717.4
2015-Jun-25 03:33N 59°29' E 024°00'2119.9
2015-Jun-25 02:30N 59°27' E 023°20'3919.8
2015-Jun-25 00:33N 59°24' E 022°04'5722.3
2015-Jun-24 22:00N 59°24' E 020°12'60 9.3 210 / 271009.110.8 0.514.012.2
2015-Jun-24 15:34N 59°21' E 018°15'5 5.1
2015-Jun-24 14:33N 59°19' E 018°06'0 0.0
2015-Jun-24 13:34N 59°19' E 018°06'0 0.0
2015-Jun-24 12:32N 59°19' E 018°06'0 0.0
2015-Jun-24 11:31N 59°19' E 018°06'0 0.0
2015-Jun-24 10:33N 59°19' E 018°06'0 0.0
2015-Jun-24 09:32N 59°19' E 018°06'0 0.0
2015-Jun-24 08:32N 59°19' E 018°06'0 0.0
2015-Jun-24 07:32N 59°19' E 018°06'0 0.5
2015-Jun-24 06:33N 59°19' E 018°07'  

Dump ship's entire track history